createdAt,value
2023-05-14T00:00:30.740Z,6.30
2023-05-14T00:02:57.853Z,7.73
2023-05-14T00:05:25.146Z,6.83
2023-05-14T00:07:53.353Z,6.20
2023-05-14T00:10:21.875Z,6.00
2023-05-14T00:12:49.121Z,6.87
2023-05-14T00:15:15.987Z,6.00
2023-05-14T00:17:43.191Z,6.10
2023-05-14T00:20:12.164Z,7.20
2023-05-14T00:22:39.592Z,7.03
2023-05-14T00:25:08.958Z,7.10
2023-05-14T00:27:37.595Z,6.90
2023-05-14T00:30:06.909Z,6.30
2023-05-14T00:32:33.999Z,6.80
2023-05-14T00:35:02.945Z,6.13
2023-05-14T00:37:30.009Z,6.47
2023-05-14T00:39:57.882Z,6.80
2023-05-14T00:42:27.121Z,6.33
2023-05-14T00:44:54.135Z,6.50
2023-05-14T00:47:21.138Z,6.53
2023-05-14T00:49:48.141Z,6.30
2023-05-14T00:52:16.453Z,6.40
2023-05-14T00:54:44.575Z,5.70
2023-05-14T00:57:11.514Z,5.90
2023-05-14T00:59:41.804Z,5.73
2023-05-14T01:02:08.763Z,6.00
2023-05-14T01:04:36.031Z,6.53
2023-05-14T01:07:11.454Z,6.07
2023-05-14T01:09:44.592Z,8.00
2023-05-14T01:12:19.224Z,6.87
2023-05-14T01:14:54.293Z,9.17
2023-05-14T01:17:22.949Z,7.50
2023-05-14T01:19:51.963Z,8.17
2023-05-14T01:22:20.445Z,7.77
2023-05-14T01:24:47.779Z,8.27
2023-05-14T01:27:21.887Z,8.33
2023-05-14T01:29:54.863Z,7.80
2023-05-14T01:32:24.543Z,7.60
2023-05-14T01:34:53.374Z,8.73
2023-05-14T01:37:22.550Z,7.97
2023-05-14T01:39:50.855Z,8.03
2023-05-14T01:42:18.071Z,8.30
2023-05-14T01:44:45.410Z,8.17
2023-05-14T01:47:12.304Z,7.73
2023-05-14T01:49:39.278Z,8.43
2023-05-14T01:52:07.292Z,8.60
2023-05-14T01:54:35.631Z,8.67
2023-05-14T01:57:02.947Z,8.37
2023-05-14T01:59:29.905Z,8.30
2023-05-14T02:01:56.842Z,8.00
2023-05-14T02:04:23.894Z,7.97
2023-05-14T02:06:51.194Z,8.20
2023-05-14T02:09:18.094Z,8.47
2023-05-14T02:11:46.380Z,7.87
2023-05-14T02:14:15.265Z,7.43
2023-05-14T02:16:42.222Z,7.20
2023-05-14T02:19:09.238Z,7.00
2023-05-14T02:21:36.142Z,8.00
2023-05-14T02:24:03.238Z,8.10
2023-05-14T02:26:30.187Z,8.33
2023-05-14T02:28:58.606Z,8.23
2023-05-14T02:31:25.913Z,8.63
2023-05-14T02:33:52.837Z,8.27
2023-05-14T02:36:19.768Z,7.73
2023-05-14T02:38:46.616Z,8.27
2023-05-14T02:41:13.496Z,8.43
2023-05-14T02:43:41.187Z,10.00
2023-05-14T02:46:09.555Z,8.53
2023-05-14T02:48:36.419Z,8.93
2023-05-14T02:51:03.533Z,9.00
2023-05-14T02:53:30.449Z,8.87
2023-05-14T02:55:57.344Z,8.63
2023-05-14T02:58:27.426Z,8.17
2023-05-14T03:00:55.613Z,8.97
2023-05-14T03:03:24.299Z,9.50
2023-05-14T03:05:51.921Z,8.97
2023-05-14T03:08:19.004Z,9.30
2023-05-14T03:10:46.923Z,10.57
2023-05-14T03:13:17.705Z,10.27
2023-05-14T03:15:44.620Z,9.53
2023-05-14T03:18:11.540Z,8.73
2023-05-14T03:20:42.371Z,9.50
2023-05-14T03:23:09.318Z,8.93
2023-05-14T03:25:36.399Z,8.53
2023-05-14T03:28:03.407Z,8.17
2023-05-14T03:30:30.611Z,9.10
2023-05-14T03:32:57.858Z,8.93
2023-05-14T03:35:24.803Z,8.10
2023-05-14T03:37:53.090Z,9.03
2023-05-14T03:40:21.395Z,9.60
2023-05-14T03:42:48.509Z,9.37
2023-05-14T03:45:16.307Z,9.33
2023-05-14T03:47:43.297Z,10.50
2023-05-14T03:50:10.602Z,8.53
2023-05-14T03:52:37.498Z,9.90
2023-05-14T03:55:06.771Z,9.13
2023-05-14T03:57:33.788Z,8.23
2023-05-14T04:00:00.725Z,8.83
2023-05-14T04:02:27.711Z,9.37
2023-05-14T04:04:55.798Z,9.53
2023-05-14T04:07:22.965Z,9.20
2023-05-14T04:09:49.854Z,8.50
2023-05-14T04:12:19.735Z,9.03
2023-05-14T04:14:46.747Z,10.13
2023-05-14T04:17:13.659Z,9.90
2023-05-14T04:19:40.570Z,9.23
2023-05-14T04:22:07.463Z,8.40
2023-05-14T04:24:34.350Z,7.73
2023-05-14T04:27:01.258Z,8.30
2023-05-14T04:29:29.624Z,8.93
2023-05-14T04:31:56.486Z,9.47
2023-05-14T04:34:23.373Z,8.37
2023-05-14T04:36:51.296Z,9.13
2023-05-14T04:39:18.956Z,9.33
2023-05-14T04:41:45.905Z,8.43
2023-05-14T04:44:13.327Z,7.93
2023-05-14T04:46:41.529Z,7.40
2023-05-14T04:49:08.379Z,9.10
2023-05-14T04:51:35.774Z,8.83
2023-05-14T04:54:02.665Z,10.97
2023-05-14T04:56:29.551Z,9.20
2023-05-14T04:58:56.406Z,10.13
2023-05-14T05:01:23.527Z,9.73
2023-05-14T05:03:52.343Z,9.83
2023-05-14T05:06:19.392Z,9.20
2023-05-14T05:08:46.258Z,8.53
2023-05-14T05:11:13.109Z,9.40
2023-05-14T05:13:40.075Z,9.97
2023-05-14T05:16:07.291Z,9.20
2023-05-14T05:18:34.353Z,9.27
2023-05-14T05:21:02.638Z,10.93
2023-05-14T05:23:29.543Z,9.20
2023-05-14T05:25:56.446Z,9.67
2023-05-14T05:28:23.375Z,9.67
2023-05-14T05:30:50.324Z,9.97
2023-05-14T05:33:17.247Z,10.43
2023-05-14T05:35:44.710Z,9.73
2023-05-14T05:38:12.950Z,10.10
2023-05-14T05:40:39.846Z,9.63
2023-05-14T05:43:06.763Z,9.40
2023-05-14T05:45:33.881Z,11.20
2023-05-14T05:48:00.814Z,9.13
2023-05-14T05:50:27.764Z,9.50
2023-05-14T05:52:54.648Z,11.33
2023-05-14T05:55:23.225Z,8.70
2023-05-14T05:57:50.051Z,9.33
2023-05-14T06:00:17.594Z,10.10
2023-05-14T06:02:44.596Z,8.73
2023-05-14T06:05:11.737Z,9.90
2023-05-14T06:07:38.832Z,9.37
2023-05-14T06:10:07.013Z,10.03
2023-05-14T06:12:35.295Z,9.27
2023-05-14T06:15:02.236Z,8.83
2023-05-14T06:17:29.251Z,8.83
2023-05-14T06:19:56.135Z,9.07
2023-05-14T06:22:23.000Z,9.17
2023-05-14T06:24:50.138Z,8.37
2023-05-14T06:27:16.971Z,9.83
2023-05-14T06:29:45.299Z,10.07
2023-05-14T06:32:15.426Z,9.30
2023-05-14T06:34:42.590Z,9.57
2023-05-14T06:37:09.717Z,10.17
2023-05-14T06:39:37.037Z,9.87
2023-05-14T06:42:04.587Z,9.93
2023-05-14T06:44:31.784Z,8.97
2023-05-14T06:47:00.035Z,8.93
2023-05-14T06:49:26.888Z,8.50
2023-05-14T06:51:54.194Z,9.33
2023-05-14T06:54:21.123Z,9.27
2023-05-14T06:56:47.979Z,9.60
2023-05-14T06:59:14.793Z,9.63
2023-05-14T07:01:41.879Z,10.00
2023-05-14T07:04:10.221Z,10.33
2023-05-14T07:06:37.126Z,9.93
2023-05-14T07:09:04.303Z,8.93
2023-05-14T07:11:31.193Z,9.30
2023-05-14T07:13:58.083Z,9.57
2023-05-14T07:16:25.227Z,9.90
2023-05-14T07:18:52.244Z,9.50
2023-05-14T07:21:20.609Z,10.10
2023-05-14T07:23:47.451Z,9.23
2023-05-14T07:26:14.301Z,9.80
2023-05-14T07:28:41.194Z,9.80
2023-05-14T07:31:09.064Z,10.03
2023-05-14T07:33:36.555Z,10.33
2023-05-14T07:36:03.650Z,9.00
2023-05-14T07:38:32.062Z,11.97
2023-05-14T07:40:58.902Z,8.87
2023-05-14T07:43:26.465Z,9.77
2023-05-14T07:45:53.434Z,8.60
2023-05-14T07:48:20.369Z,9.93
2023-05-14T07:50:48.527Z,8.57
2023-05-14T07:53:15.546Z,8.80
2023-05-14T07:55:44.983Z,8.93
2023-05-14T07:58:11.818Z,8.80
2023-05-14T08:00:38.678Z,9.03
2023-05-14T08:03:05.676Z,9.07
2023-05-14T08:05:33.028Z,9.00
2023-05-14T08:07:59.871Z,9.80
2023-05-14T08:10:27.316Z,9.43
2023-05-14T08:12:55.908Z,8.13
2023-05-14T08:15:25.723Z,8.83
2023-05-14T08:17:54.135Z,9.57
2023-05-14T08:20:21.388Z,10.27
2023-05-14T08:22:48.342Z,10.50
2023-05-14T08:25:15.259Z,12.43
2023-05-14T08:27:42.115Z,11.93
2023-05-14T08:30:11.440Z,9.37
2023-05-14T08:32:39.291Z,10.27
2023-05-14T08:35:07.008Z,9.67
2023-05-14T08:37:34.056Z,9.83
2023-05-14T08:40:00.977Z,9.17
2023-05-14T08:42:29.265Z,9.97
2023-05-14T08:45:00.983Z,9.10
2023-05-14T08:47:30.614Z,10.80
2023-05-14T08:50:02.602Z,8.93
2023-05-14T08:52:30.220Z,9.73
2023-05-14T08:54:58.801Z,10.47
2023-05-14T08:57:26.712Z,9.50
2023-05-14T08:59:53.792Z,9.80
2023-05-14T09:02:24.044Z,9.17
2023-05-14T09:04:55.782Z,10.60
2023-05-14T09:07:22.763Z,9.77
2023-05-14T09:09:49.971Z,8.90
2023-05-14T09:12:17.129Z,8.37
2023-05-14T09:14:44.373Z,8.87
2023-05-14T09:17:12.567Z,8.60
2023-05-14T09:19:40.439Z,9.53
2023-05-14T09:22:12.345Z,8.40
2023-05-14T09:24:39.543Z,9.50
2023-05-14T09:27:07.045Z,8.17
2023-05-14T09:29:34.680Z,9.13
2023-05-14T09:32:05.827Z,8.63
2023-05-14T09:34:35.143Z,9.17
2023-05-14T09:37:03.911Z,8.10
2023-05-14T09:39:33.343Z,10.43
2023-05-14T09:42:00.480Z,8.57
2023-05-14T09:44:27.696Z,8.67
2023-05-14T09:46:55.082Z,7.97
2023-05-14T09:49:22.442Z,8.90
2023-05-14T09:51:49.846Z,8.27
2023-05-14T09:54:16.881Z,9.03
2023-05-14T09:56:45.245Z,8.20
2023-05-14T09:59:12.271Z,7.40
2023-05-14T10:01:42.369Z,8.80
2023-05-14T10:04:11.185Z,8.53
2023-05-14T10:06:39.630Z,8.30
2023-05-14T10:09:13.617Z,7.93
2023-05-14T10:11:43.804Z,7.20
2023-05-14T10:14:18.419Z,8.13
2023-05-14T10:16:49.585Z,7.00
2023-05-14T10:19:17.971Z,8.23
2023-05-14T10:21:49.040Z,8.03
2023-05-14T10:24:17.303Z,8.00
2023-05-14T10:26:44.824Z,7.67
2023-05-14T10:29:13.286Z,7.13
2023-05-14T10:31:49.156Z,6.83
2023-05-14T10:34:33.436Z,8.20
2023-05-14T10:37:01.462Z,7.80
2023-05-14T10:39:42.446Z,6.70
2023-05-14T10:42:11.760Z,7.57
2023-05-14T10:44:47.464Z,7.20
2023-05-14T10:47:15.933Z,6.80
2023-05-14T10:49:44.198Z,7.97
2023-05-14T10:52:11.676Z,6.97
2023-05-14T10:54:38.737Z,8.60
2023-05-14T10:57:11.290Z,6.70
2023-05-14T10:59:42.081Z,6.50
2023-05-14T11:02:20.549Z,6.90
2023-05-14T11:04:53.253Z,5.90
2023-05-14T11:07:24.709Z,6.33
2023-05-14T11:09:52.573Z,6.90
2023-05-14T11:12:20.031Z,5.50
2023-05-14T11:14:48.571Z,6.80
2023-05-14T11:17:15.880Z,4.97
2023-05-14T11:19:44.819Z,5.57
2023-05-14T11:22:13.754Z,5.90
2023-05-14T11:24:41.277Z,6.20
2023-05-14T11:27:09.127Z,6.13
2023-05-14T11:29:36.520Z,5.73
2023-05-14T11:32:06.050Z,5.70
2023-05-14T11:34:34.583Z,4.50
2023-05-14T11:37:04.268Z,4.57
2023-05-14T11:39:32.026Z,4.97
2023-05-14T11:41:59.149Z,6.47
2023-05-14T11:44:26.125Z,5.27
2023-05-14T11:46:56.981Z,5.30
2023-05-14T11:49:25.873Z,4.93
2023-05-14T11:51:57.462Z,4.90
2023-05-14T11:54:26.605Z,6.37
2023-05-14T11:56:55.242Z,5.67
2023-05-14T11:59:24.045Z,5.07
2023-05-14T12:01:52.350Z,4.57
2023-05-14T12:04:22.373Z,5.07
2023-05-14T12:06:51.455Z,4.40
2023-05-14T12:09:18.767Z,4.87
2023-05-14T12:11:46.511Z,5.33
2023-05-14T12:14:16.164Z,5.20
2023-05-14T12:16:45.152Z,4.67
2023-05-14T12:19:14.855Z,5.63
2023-05-14T12:21:43.776Z,6.07
2023-05-14T12:24:13.037Z,5.87
2023-05-14T12:26:40.700Z,5.80
2023-05-14T12:29:07.655Z,6.53
2023-05-14T12:31:35.411Z,6.20
2023-05-14T12:34:02.935Z,6.87
2023-05-14T12:36:30.946Z,5.03
2023-05-14T12:39:00.236Z,5.00
2023-05-14T12:41:28.776Z,5.20
2023-05-14T12:43:55.828Z,6.67
2023-05-14T12:46:23.117Z,4.87
2023-05-14T12:48:52.364Z,5.07
2023-05-14T12:51:20.313Z,4.87
2023-05-14T12:53:47.465Z,5.10
2023-05-14T12:56:14.556Z,4.23
2023-05-14T12:58:43.027Z,5.83
2023-05-14T13:01:10.095Z,4.83
2023-05-14T13:03:37.084Z,6.20
2023-05-14T13:06:04.263Z,5.00
2023-05-14T13:08:31.167Z,4.27
2023-05-14T13:10:58.163Z,3.80
2023-05-14T13:13:25.409Z,5.60
2023-05-14T13:15:54.509Z,4.10
2023-05-14T13:18:21.735Z,4.70
2023-05-14T13:20:48.719Z,4.10
2023-05-14T13:23:15.725Z,4.80
2023-05-14T13:25:42.631Z,3.53
2023-05-14T13:28:09.732Z,3.83
2023-05-14T13:30:36.676Z,4.23
2023-05-14T13:33:05.433Z,3.73
2023-05-14T13:35:32.960Z,4.00
2023-05-14T13:37:59.843Z,3.50
2023-05-14T13:40:26.695Z,5.10
2023-05-14T13:42:53.553Z,3.40
2023-05-14T13:45:20.522Z,4.23
2023-05-14T13:47:49.361Z,3.23
2023-05-14T13:50:17.965Z,3.93
2023-05-14T13:52:44.900Z,4.60
2023-05-14T13:55:11.836Z,5.27
2023-05-14T13:57:39.907Z,4.03
2023-05-14T14:00:09.616Z,4.27
2023-05-14T14:02:36.563Z,4.50
2023-05-14T14:05:03.921Z,4.40
2023-05-14T14:07:32.297Z,4.00
2023-05-14T14:10:01.425Z,4.33
2023-05-14T14:12:28.459Z,3.87
2023-05-14T14:14:55.428Z,3.83
2023-05-14T14:17:22.390Z,3.90
2023-05-14T14:19:49.292Z,3.40
2023-05-14T14:22:17.370Z,4.30
2023-05-14T14:24:45.724Z,4.07
2023-05-14T14:27:12.653Z,4.43
2023-05-14T14:29:39.507Z,4.63
2023-05-14T14:32:07.520Z,4.50
2023-05-14T14:34:34.591Z,4.10
2023-05-14T14:37:01.522Z,3.73
2023-05-14T14:39:28.441Z,4.60
2023-05-14T14:41:56.766Z,4.90
2023-05-14T14:44:23.700Z,4.13
2023-05-14T14:46:50.683Z,3.90
2023-05-14T14:49:17.604Z,3.97
2023-05-14T14:51:44.610Z,4.57
2023-05-14T14:54:11.519Z,3.33
2023-05-14T14:56:39.181Z,3.63
2023-05-14T14:59:07.482Z,3.30
2023-05-14T15:01:34.521Z,3.30
2023-05-14T15:04:01.524Z,3.63
2023-05-14T15:06:28.404Z,3.83
2023-05-14T15:08:55.241Z,4.17
2023-05-14T15:11:22.274Z,3.53
2023-05-14T15:13:49.232Z,3.20
2023-05-14T15:16:17.550Z,3.60
2023-05-14T15:18:44.493Z,3.27
2023-05-14T15:21:11.406Z,3.10
2023-05-14T15:23:38.292Z,3.07
2023-05-14T15:26:05.531Z,2.77
2023-05-14T15:28:32.397Z,3.13
2023-05-14T15:30:59.392Z,2.83
2023-05-14T15:33:27.762Z,3.13
2023-05-14T15:35:54.635Z,3.40
2023-05-14T15:38:21.493Z,3.77
2023-05-14T15:40:48.851Z,3.30
2023-05-14T15:43:15.711Z,3.30
2023-05-14T15:45:44.493Z,3.50
2023-05-14T15:48:11.454Z,3.80
2023-05-14T15:50:39.801Z,4.00
2023-05-14T15:53:06.680Z,3.30
2023-05-14T15:55:33.614Z,3.30
2023-05-14T15:58:00.600Z,2.93
2023-05-14T16:00:27.585Z,4.23
2023-05-14T16:02:54.602Z,4.23
2023-05-14T16:05:21.937Z,4.40
2023-05-14T16:07:50.362Z,3.87
2023-05-14T16:10:17.237Z,5.07
2023-05-14T16:12:44.125Z,4.73
2023-05-14T16:15:11.594Z,4.33
2023-05-14T16:17:38.680Z,4.00
2023-05-14T16:20:06.440Z,4.53
2023-05-14T16:22:34.717Z,4.47
2023-05-14T16:25:04.531Z,4.20
2023-05-14T16:27:31.720Z,4.10
2023-05-14T16:29:58.538Z,4.27
2023-05-14T16:32:25.635Z,4.43
2023-05-14T16:34:52.614Z,4.20
2023-05-14T16:37:20.455Z,4.47
2023-05-14T16:39:47.789Z,4.07
2023-05-14T16:42:16.086Z,4.03
2023-05-14T16:44:42.936Z,5.27
2023-05-14T16:47:09.804Z,4.37
2023-05-14T16:49:36.685Z,4.40
2023-05-14T16:52:03.860Z,4.17
2023-05-14T16:54:30.788Z,5.03
2023-05-14T16:56:59.256Z,4.07
2023-05-14T16:59:27.441Z,5.80
2023-05-14T17:01:54.363Z,4.10
2023-05-14T17:04:21.384Z,4.37
2023-05-14T17:06:48.251Z,4.50
2023-05-14T17:09:15.131Z,4.10
2023-05-14T17:11:41.965Z,4.07
2023-05-14T17:14:08.816Z,5.00
2023-05-14T17:16:38.722Z,4.40
2023-05-14T17:19:05.758Z,4.43
2023-05-14T17:21:32.661Z,4.30
2023-05-14T17:23:59.586Z,4.30
2023-05-14T17:26:26.908Z,4.60
2023-05-14T17:28:53.731Z,4.03
2023-05-14T17:31:21.701Z,3.80
2023-05-14T17:33:49.987Z,4.70
2023-05-14T17:36:16.813Z,4.20
2023-05-14T17:38:43.688Z,5.00
2023-05-14T17:41:10.602Z,3.90
2023-05-14T17:43:37.414Z,4.63
2023-05-14T17:46:05.147Z,4.10
2023-05-14T17:48:31.992Z,4.37
2023-05-14T17:51:00.374Z,5.00
2023-05-14T17:53:27.230Z,4.20
2023-05-14T17:55:54.130Z,4.07
2023-05-14T17:58:21.239Z,5.13
2023-05-14T18:00:48.080Z,4.33
2023-05-14T18:03:15.122Z,3.50
2023-05-14T18:05:42.145Z,3.80
2023-05-14T18:08:10.328Z,3.40
2023-05-14T18:10:37.580Z,4.27
2023-05-14T18:13:04.415Z,4.40
2023-05-14T18:15:31.567Z,3.87
2023-05-14T18:17:58.502Z,3.67
2023-05-14T18:20:25.412Z,4.00
2023-05-14T18:22:52.406Z,4.23
2023-05-14T18:25:20.738Z,4.40
2023-05-14T18:27:47.644Z,3.60
2023-05-14T18:30:15.947Z,3.80
2023-05-14T18:32:44.584Z,4.10
2023-05-14T18:35:12.194Z,4.83
2023-05-14T18:37:39.201Z,4.07
2023-05-14T18:40:07.424Z,4.43
2023-05-14T18:42:35.676Z,4.10
2023-05-14T18:45:04.034Z,4.43
2023-05-14T18:47:31.418Z,4.87
2023-05-14T18:50:00.375Z,4.97
2023-05-14T18:52:27.657Z,4.80
2023-05-14T18:54:54.881Z,5.20
2023-05-14T18:57:21.962Z,4.53
2023-05-14T18:59:50.240Z,5.10
2023-05-14T19:02:17.185Z,4.90
2023-05-14T19:04:52.466Z,4.40
2023-05-14T19:07:20.296Z,5.20
2023-05-14T19:09:47.156Z,6.67
2023-05-14T19:12:14.480Z,4.63
2023-05-14T19:14:41.376Z,6.10
2023-05-14T19:17:10.112Z,5.10
2023-05-14T19:19:37.748Z,5.20
2023-05-14T19:22:04.982Z,5.03
2023-05-14T19:24:31.847Z,5.20
2023-05-14T19:26:58.745Z,5.47
2023-05-14T19:29:25.597Z,5.60
2023-05-14T19:31:52.472Z,5.23
2023-05-14T19:34:20.651Z,5.47
2023-05-14T19:36:47.516Z,5.57
2023-05-14T19:39:14.343Z,5.53
2023-05-14T19:41:41.195Z,5.00
2023-05-14T19:44:08.013Z,5.73
2023-05-14T19:46:34.853Z,4.60
2023-05-14T19:49:01.664Z,6.63
2023-05-14T19:51:29.880Z,5.83
2023-05-14T19:53:56.693Z,4.87
2023-05-14T19:56:24.747Z,5.40
2023-05-14T19:58:53.281Z,7.00
2023-05-14T20:01:20.915Z,6.70
2023-05-14T20:03:47.813Z,6.37
2023-05-14T20:06:14.818Z,6.03
2023-05-14T20:08:45.080Z,5.33
2023-05-14T20:11:12.003Z,6.27
2023-05-14T20:13:38.897Z,5.87
2023-05-14T20:16:06.700Z,6.53
2023-05-14T20:18:33.877Z,5.27
2023-05-14T20:21:01.205Z,6.07
2023-05-14T20:23:28.338Z,6.17
2023-05-14T20:25:56.609Z,5.27
2023-05-14T20:28:23.431Z,5.93
2023-05-14T20:30:50.437Z,5.37
2023-05-14T20:33:17.415Z,4.80
2023-05-14T20:35:44.367Z,4.83
2023-05-14T20:38:12.638Z,6.63
2023-05-14T20:40:39.714Z,7.03
2023-05-14T20:43:08.064Z,8.43
2023-05-14T20:45:34.916Z,6.60
2023-05-14T20:48:01.955Z,6.73
2023-05-14T20:50:28.954Z,7.40
2023-05-14T20:52:55.939Z,6.63
2023-05-14T20:55:23.366Z,5.33
2023-05-14T20:57:50.552Z,7.43
2023-05-14T21:00:19.794Z,6.47
2023-05-14T21:02:46.862Z,6.50
2023-05-14T21:05:14.035Z,5.13
2023-05-14T21:07:41.055Z,5.20
2023-05-14T21:10:09.285Z,5.83
2023-05-14T21:12:36.321Z,6.00
2023-05-14T21:15:03.537Z,6.83
2023-05-14T21:17:31.963Z,5.20
2023-05-14T21:19:59.015Z,5.70
2023-05-14T21:22:27.075Z,5.93
2023-05-14T21:24:55.068Z,5.97
2023-05-14T21:27:22.039Z,5.93
2023-05-14T21:29:48.918Z,5.97
2023-05-14T21:32:15.960Z,6.30
2023-05-14T21:34:44.196Z,4.80
2023-05-14T21:37:11.108Z,4.50
2023-05-14T21:39:37.982Z,6.93
2023-05-14T21:42:05.298Z,5.67
2023-05-14T21:44:32.176Z,5.90
2023-05-14T21:46:59.556Z,6.00
2023-05-14T21:49:26.463Z,5.80
2023-05-14T21:51:54.761Z,5.90
2023-05-14T21:54:21.697Z,5.33
2023-05-14T21:56:48.662Z,5.90
2023-05-14T21:59:15.685Z,5.17
2023-05-14T22:04:13.084Z,6.67
2023-05-14T22:06:40.248Z,5.90
2023-05-14T22:09:11.029Z,5.40
2023-05-14T22:11:37.960Z,6.20
2023-05-14T22:14:04.823Z,5.43
2023-05-14T22:16:32.406Z,5.30
2023-05-14T22:18:59.365Z,4.60
2023-05-14T22:21:26.281Z,5.07
2023-05-14T22:23:53.211Z,5.97
2023-05-14T22:26:24.424Z,5.33
2023-05-14T22:28:52.480Z,6.03
2023-05-14T22:31:19.458Z,5.33
2023-05-14T22:33:46.415Z,6.13
2023-05-14T22:36:13.444Z,4.80
2023-05-14T22:38:41.258Z,5.40
2023-05-14T22:41:08.215Z,5.00
2023-05-14T22:43:36.474Z,5.07
2023-05-14T22:46:03.787Z,5.70
2023-05-14T22:48:30.717Z,5.63
2023-05-14T22:50:57.544Z,5.87
2023-05-14T22:53:25.382Z,5.90
2023-05-14T22:55:52.353Z,6.43
2023-05-14T22:58:19.293Z,5.63
2023-05-14T23:00:47.552Z,6.13
2023-05-14T23:03:14.429Z,6.90
2023-05-14T23:05:41.301Z,6.60
2023-05-14T23:08:08.197Z,5.60
2023-05-14T23:10:37.934Z,6.23
2023-05-14T23:13:05.031Z,9.33
2023-05-14T23:15:33.260Z,5.83
2023-05-14T23:18:01.518Z,5.83
2023-05-14T23:20:28.450Z,6.97
2023-05-14T23:22:55.458Z,5.30
2023-05-14T23:25:22.550Z,5.40
2023-05-14T23:27:50.043Z,6.77
2023-05-14T23:30:17.113Z,6.07
2023-05-14T23:32:44.031Z,5.63
2023-05-14T23:35:12.280Z,5.57
2023-05-14T23:37:42.559Z,7.27
2023-05-14T23:40:10.029Z,5.17
2023-05-14T23:42:36.944Z,5.00
2023-05-14T23:45:04.333Z,5.93
2023-05-14T23:47:31.296Z,7.07
2023-05-14T23:49:58.257Z,5.80
2023-05-14T23:52:26.483Z,5.67
2023-05-14T23:54:53.508Z,6.03
2023-05-14T23:57:20.751Z,6.47
2023-05-14T23:59:47.693Z,5.07
